Herstmonceux, United Kingdom
Current Conditions -  °F | °C
As of 7:20 PM on Friday 28 Nov 2014 (Local Time) from EGKA Reporting Station
Light Rain Light Rain  
Wind Chill: 55°   Ceiling: Unl
Heat Index: 55°   Visibility: 6mi
Dew Point: 50°   Wind: 10mph
Humidity: 82%   Direction: 70°ENE
Pressure: 29.65"   Gusts: NA
Location:  50.89°N, 0.32°E
Report Text: EGKA 281920Z 07009KT 9000 -RA SCT030 13/10 Q1004
Loading
Personal Weather Stations






























Interactive Weather Map New forecast layout! Learn more

10-Day Weather Forecast

Advertisements
Track Severe Weather on mobile